sensor_id;sensor_type;location;lat;lon;timestamp;pressure;altitude;pressure_sealevel;temperature;humidity
37852;BME280;23691;52.486;4.650;2022-10-13T00:00:03;101875.56;;;12.95;72.69
37852;BME280;23691;52.486;4.650;2022-10-13T00:03:25;101877.22;;;12.96;72.63
37852;BME280;23691;52.486;4.650;2022-10-13T00:06:04;101863.94;;;12.94;72.49
37852;BME280;23691;52.486;4.650;2022-10-13T00:08:52;101872.00;;;12.94;72.69
37852;BME280;23691;52.486;4.650;2022-10-13T00:11:29;101879.22;;;12.94;72.81
37852;BME280;23691;52.486;4.650;2022-10-13T00:17:38;101870.78;;;12.88;73.17
37852;BME280;23691;52.486;4.650;2022-10-13T00:21:08;101856.19;;;12.91;73.09
37852;BME280;23691;52.486;4.650;2022-10-13T00:24:08;101858.75;;;12.93;73.13
37852;BME280;23691;52.486;4.650;2022-10-13T00:26:34;101855.88;;;12.94;73.06
37852;BME280;23691;52.486;4.650;2022-10-13T00:29:41;101855.50;;;12.89;73.48
37852;BME280;23691;52.486;4.650;2022-10-13T00:32:33;101864.03;;;12.84;73.70
37852;BME280;23691;52.486;4.650;2022-10-13T00:35:06;101869.25;;;12.86;73.96
37852;BME280;23691;52.486;4.650;2022-10-13T00:41:01;101868.03;;;12.80;74.27
37852;BME280;23691;52.486;4.650;2022-10-13T00:43:53;101865.72;;;12.85;74.25
37852;BME280;23691;52.486;4.650;2022-10-13T00:46:33;101865.88;;;12.84;74.22
37852;BME280;23691;52.486;4.650;2022-10-13T00:49:12;101861.34;;;12.84;74.21
37852;BME280;23691;52.486;4.650;2022-10-13T00:51:47;101862.72;;;12.88;74.32
37852;BME280;23691;52.486;4.650;2022-10-13T00:54:21;101874.47;;;12.87;74.34
37852;BME280;23691;52.486;4.650;2022-10-13T01:03:55;101852.53;;;12.92;74.57
37852;BME280;23691;52.486;4.650;2022-10-13T01:31:56;101843.31;;;12.95;75.64
37852;BME280;23691;52.486;4.650;2022-10-13T01:46:31;101828.88;;;12.96;76.42
37852;BME280;23691;52.486;4.650;2022-10-13T01:52:54;101822.88;;;13.02;76.49
37852;BME280;23691;52.486;4.650;2022-10-13T01:55:58;101804.25;;;13.00;76.60
37852;BME280;23691;52.486;4.650;2022-10-13T01:59:08;101796.50;;;12.97;76.78
37852;BME280;23691;52.486;4.650;2022-10-13T02:02:22;101804.94;;;13.02;76.87
37852;BME280;23691;52.486;4.650;2022-10-13T02:11:25;101785.47;;;13.08;76.89
37852;BME280;23691;52.486;4.650;2022-10-13T02:14:19;101795.06;;;13.11;76.92
37852;BME280;23691;52.486;4.650;2022-10-13T02:17:00;101791.41;;;13.12;76.91
37852;BME280;23691;52.486;4.650;2022-10-13T02:19:50;101788.38;;;13.15;77.09
37852;BME280;23691;52.486;4.650;2022-10-13T02:22:23;101783.84;;;13.16;76.90
37852;BME280;23691;52.486;4.650;2022-10-13T02:25:02;101788.06;;;13.18;77.06
37852;BME280;23691;52.486;4.650;2022-10-13T02:27:36;101786.06;;;13.20;77.24
37852;BME280;23691;52.486;4.650;2022-10-13T02:30:48;101778.84;;;13.21;77.19
37852;BME280;23691;52.486;4.650;2022-10-13T02:36:20;101781.00;;;13.17;77.68
37852;BME280;23691;52.486;4.650;2022-10-13T02:38:56;101779.78;;;13.11;78.22
37852;BME280;23691;52.486;4.650;2022-10-13T02:41:25;101773.06;;;13.07;78.47
37852;BME280;23691;52.486;4.650;2022-10-13T02:43:58;101769.34;;;13.08;78.63
37852;BME280;23691;52.486;4.650;2022-10-13T02:46:49;101762.81;;;13.11;78.86
37852;BME280;23691;52.486;4.650;2022-10-13T02:52:11;101748.09;;;13.15;78.88
37852;BME280;23691;52.486;4.650;2022-10-13T02:54:52;101749.59;;;13.18;78.96
37852;BME280;23691;52.486;4.650;2022-10-13T02:57:32;101749.59;;;13.18;78.96
37852;BME280;23691;52.486;4.650;2022-10-13T03:00:20;101740.06;;;13.23;78.84
37852;BME280;23691;52.486;4.650;2022-10-13T03:03:50;101734.34;;;13.26;78.87
37852;BME280;23691;52.486;4.650;2022-10-13T03:06:48;101737.94;;;13.27;78.70
37852;BME280;23691;52.486;4.650;2022-10-13T03:10:32;101743.31;;;13.27;78.78
37852;BME280;23691;52.486;4.650;2022-10-13T03:13:21;101744.59;;;13.23;79.00
37852;BME280;23691;52.486;4.650;2022-10-13T03:16:21;101744.75;;;13.21;79.23
37852;BME280;23691;52.486;4.650;2022-10-13T03:19:23;101741.22;;;13.21;79.41
37852;BME280;23691;52.486;4.650;2022-10-13T03:22:35;101736.03;;;13.19;79.59
37852;BME280;23691;52.486;4.650;2022-10-13T03:29:09;101742.53;;;13.17;79.78
37852;BME280;23691;52.486;4.650;2022-10-13T03:32:20;101734.09;;;13.11;80.07
37852;BME280;23691;52.486;4.650;2022-10-13T03:34:46;101735.47;;;13.16;80.07
37852;BME280;23691;52.486;4.650;2022-10-13T03:37:12;101730.78;;;13.18;80.04
37852;BME280;23691;52.486;4.650;2022-10-13T03:39:43;101736.69;;;13.21;79.97
37852;BME280;23691;52.486;4.650;2022-10-13T03:42:14;101738.38;;;13.22;80.04
37852;BME280;23691;52.486;4.650;2022-10-13T03:44:42;101733.50;;;13.26;79.84
37852;BME280;23691;52.486;4.650;2022-10-13T03:47:08;101735.25;;;13.27;79.89
37852;BME280;23691;52.486;4.650;2022-10-13T03:49:34;101736.09;;;13.27;79.96
37852;BME280;23691;52.486;4.650;2022-10-13T03:52:04;101736.19;;;13.26;80.29
37852;BME280;23691;52.486;4.650;2022-10-13T04:31:12;101708.56;;;13.34;81.67
37852;BME280;23691;52.486;4.650;2022-10-13T04:33:38;101700.66;;;13.32;81.46
37852;BME280;23691;52.486;4.650;2022-10-13T04:36:05;101707.72;;;13.33;81.58
37852;BME280;23691;52.486;4.650;2022-10-13T04:38:31;101694.63;;;13.38;81.65
37852;BME280;23691;52.486;4.650;2022-10-13T04:40:56;101696.16;;;13.41;81.67
37852;BME280;23691;52.486;4.650;2022-10-13T04:43:21;101698.16;;;13.39;81.98
37852;BME280;23691;52.486;4.650;2022-10-13T04:45:47;101707.91;;;13.40;81.90
37852;BME280;23691;52.486;4.650;2022-10-13T04:48:12;101698.00;;;13.40;82.40
37852;BME280;23691;52.486;4.650;2022-10-13T04:50:39;101701.53;;;13.41;82.47
37852;BME280;23691;52.486;4.650;2022-10-13T04:53:04;101699.53;;;13.43;82.71
37852;BME280;23691;52.486;4.650;2022-10-13T04:55:30;101698.22;;;13.47;82.54
37852;BME280;23691;52.486;4.650;2022-10-13T04:57:56;101702.22;;;13.51;82.42
37852;BME280;23691;52.486;4.650;2022-10-13T05:00:21;101702.75;;;13.55;82.32
37852;BME280;23691;52.486;4.650;2022-10-13T05:02:46;101699.94;;;13.56;82.27
37852;BME280;23691;52.486;4.650;2022-10-13T05:05:12;101690.00;;;13.57;82.29
37852;BME280;23691;52.486;4.650;2022-10-13T05:07:37;101693.69;;;13.56;82.56
37852;BME280;23691;52.486;4.650;2022-10-13T05:10:03;101689.00;;;13.58;82.25
37852;BME280;23691;52.486;4.650;2022-10-13T05:12:29;101700.56;;;13.58;82.57
37852;BME280;23691;52.486;4.650;2022-10-13T05:14:54;101702.28;;;13.59;82.68
37852;BME280;23691;52.486;4.650;2022-10-13T05:17:21;101685.97;;;13.61;82.77
37852;BME280;23691;52.486;4.650;2022-10-13T05:19:48;101693.03;;;13.62;83.05
37852;BME280;23691;52.486;4.650;2022-10-13T05:22:13;101687.66;;;13.62;83.17
37852;BME280;23691;52.486;4.650;2022-10-13T05:24:38;101689.19;;;13.64;82.92
37852;BME280;23691;52.486;4.650;2022-10-13T05:27:08;101697.75;;;13.68;83.45
37852;BME280;23691;52.486;4.650;2022-10-13T05:29:34;101694.75;;;13.71;83.00
37852;BME280;23691;52.486;4.650;2022-10-13T05:32:00;101688.38;;;13.72;82.94
37852;BME280;23691;52.486;4.650;2022-10-13T05:34:25;101689.38;;;13.71;83.30
37852;BME280;23691;52.486;4.650;2022-10-13T05:36:51;101689.38;;;13.71;83.33
37852;BME280;23691;52.486;4.650;2022-10-13T05:39:16;101697.94;;;13.74;83.32
37852;BME280;23691;52.486;4.650;2022-10-13T05:41:41;101694.91;;;13.78;83.14
37852;BME280;23691;52.486;4.650;2022-10-13T05:44:08;101684.00;;;13.79;83.38
37852;BME280;23691;52.486;4.650;2022-10-13T05:46:34;101689.19;;;13.81;83.06
37852;BME280;23691;52.486;4.650;2022-10-13T05:49:00;101690.75;;;13.83;83.10
37852;BME280;23691;52.486;4.650;2022-10-13T05:51:35;101694.28;;;13.84;83.10
37852;BME280;23691;52.486;4.650;2022-10-13T05:54:07;101692.56;;;13.83;83.30
37852;BME280;23691;52.486;4.650;2022-10-13T05:56:39;101695.09;;;13.84;83.20
37852;BME280;23691;52.486;4.650;2022-10-13T05:59:08;101679.81;;;13.85;83.21
37852;BME280;23691;52.486;4.650;2022-10-13T06:01:37;101680.16;;;13.82;83.49
37852;BME280;23691;52.486;4.650;2022-10-13T06:04:06;101684.50;;;13.83;83.23
37852;BME280;23691;52.486;4.650;2022-10-13T06:06:33;101688.91;;;13.84;83.70
37852;BME280;23691;52.486;4.650;2022-10-13T06:08:59;101688.91;;;13.84;83.65
37852;BME280;23691;52.486;4.650;2022-10-13T06:11:25;101682.50;;;13.85;83.70
37852;BME280;23691;52.486;4.650;2022-10-13T06:13:50;101682.50;;;13.85;83.81
37852;BME280;23691;52.486;4.650;2022-10-13T06:16:16;101686.88;;;13.86;83.65
37852;BME280;23691;52.486;4.650;2022-10-13T06:18:41;101686.88;;;13.86;84.16
37852;BME280;23691;52.486;4.650;2022-10-13T06:21:06;101684.34;;;13.84;83.99
37852;BME280;23691;52.486;4.650;2022-10-13T06:23:32;101677.81;;;13.87;84.09
37852;BME280;23691;52.486;4.650;2022-10-13T06:25:57;101678.28;;;13.90;84.20
37852;BME280;23691;52.486;4.650;2022-10-13T06:28:22;101682.84;;;13.90;84.22
37852;BME280;23691;52.486;4.650;2022-10-13T06:30:48;101680.16;;;13.90;84.34
37852;BME280;23691;52.486;4.650;2022-10-13T06:33:19;101681.66;;;13.92;84.33
37852;BME280;23691;52.486;4.650;2022-10-13T06:35:45;101673.78;;;13.91;84.55
37852;BME280;23691;52.486;4.650;2022-10-13T06:38:10;101678.13;;;13.92;84.97
37852;BME280;23691;52.486;4.650;2022-10-13T06:40:36;101677.13;;;13.93;84.83
37852;BME280;23691;52.486;4.650;2022-10-13T06:43:02;101675.78;;;13.97;84.91
37852;BME280;23691;52.486;4.650;2022-10-13T06:45:27;101675.44;;;14.00;84.87
37852;BME280;23691;52.486;4.650;2022-10-13T06:47:54;101676.81;;;14.04;84.74
37852;BME280;23691;52.486;4.650;2022-10-13T06:50:22;101681.00;;;14.07;84.83
37852;BME280;23691;52.486;4.650;2022-10-13T06:52:48;101678.31;;;14.07;85.07
37852;BME280;23691;52.486;4.650;2022-10-13T06:55:13;101679.34;;;14.06;85.14
37852;BME280;23691;52.486;4.650;2022-10-13T06:57:39;101683.69;;;14.07;85.26
37852;BME280;23691;52.486;4.650;2022-10-13T07:00:05;101673.63;;;14.09;85.23
37852;BME280;23691;52.486;4.650;2022-10-13T07:02:31;101675.13;;;14.11;85.27
37852;BME280;23691;52.486;4.650;2022-10-13T07:04:57;101679.50;;;14.12;85.24
37852;BME280;23691;52.486;4.650;2022-10-13T07:07:22;101678.16;;;14.16;85.42
37852;BME280;23691;52.486;4.650;2022-10-13T07:09:47;101678.50;;;14.22;85.21
37852;BME280;23691;52.486;4.650;2022-10-13T07:12:14;101676.31;;;14.25;85.14
37852;BME280;23691;52.486;4.650;2022-10-13T07:14:39;101670.59;;;14.28;85.19
37852;BME280;23691;52.486;4.650;2022-10-13T07:17:04;101665.03;;;14.30;85.06
37852;BME280;23691;52.486;4.650;2022-10-13T07:19:30;101663.69;;;14.34;84.97
37852;BME280;23691;52.486;4.650;2022-10-13T07:21:55;101668.56;;;14.38;85.20
37852;BME280;23691;52.486;4.650;2022-10-13T07:24:21;101655.94;;;14.39;85.26
37852;BME280;23691;52.486;4.650;2022-10-13T07:26:46;101660.16;;;14.42;85.18
37852;BME280;23691;52.486;4.650;2022-10-13T07:29:12;101660.00;;;14.43;85.31
37852;BME280;23691;52.486;4.650;2022-10-13T07:31:38;101660.81;;;14.44;85.07
37852;BME280;23691;52.486;4.650;2022-10-13T07:34:03;101656.13;;;14.46;85.12
37852;BME280;23691;52.486;4.650;2022-10-13T07:36:31;101658.31;;;14.50;85.00
37852;BME280;23691;52.486;4.650;2022-10-13T07:38:56;101663.84;;;14.57;84.84
37852;BME280;23691;52.486;4.650;2022-10-13T07:41:23;101663.19;;;14.63;84.66
37852;BME280;23691;52.486;4.650;2022-10-13T07:43:53;101674.97;;;14.70;84.47
37852;BME280;23691;52.486;4.650;2022-10-13T07:46:18;101666.84;;;14.78;84.33
37852;BME280;23691;52.486;4.650;2022-10-13T07:48:44;101670.38;;;14.87;84.07
37852;BME280;23691;52.486;4.650;2022-10-13T07:51:11;101668.66;;;14.94;84.40
37852;BME280;23691;52.486;4.650;2022-10-13T07:53:37;101677.91;;;15.00;84.39
37852;BME280;23691;52.486;4.650;2022-10-13T07:56:05;101677.22;;;14.98;84.41
37852;BME280;23691;52.486;4.650;2022-10-13T07:58:32;101667.81;;;14.94;84.73
37852;BME280;23691;52.486;4.650;2022-10-13T08:01:01;101671.88;;;14.90;84.90
37852;BME280;23691;52.486;4.650;2022-10-13T08:03:27;101673.41;;;14.84;85.42
37852;BME280;23691;52.486;4.650;2022-10-13T08:05:53;101690.09;;;14.79;85.40
37852;BME280;23691;52.486;4.650;2022-10-13T08:08:18;101692.94;;;14.78;85.37
37852;BME280;23691;52.486;4.650;2022-10-13T08:10:44;101681.81;;;14.81;85.38
37852;BME280;23691;52.486;4.650;2022-10-13T08:13:10;101684.34;;;14.82;85.19
37852;BME280;23691;52.486;4.650;2022-10-13T08:15:43;101685.19;;;14.83;85.24
37852;BME280;23691;52.486;4.650;2022-10-13T08:18:10;101694.31;;;14.82;85.25
37852;BME280;23691;52.486;4.650;2022-10-13T08:20:43;101695.81;;;14.85;85.14
37852;BME280;23691;52.486;4.650;2022-10-13T08:23:11;101696.28;;;14.88;85.00
37852;BME280;23691;52.486;4.650;2022-10-13T08:25:40;101690.75;;;14.90;85.33
37852;BME280;23691;52.486;4.650;2022-10-13T08:28:16;101693.09;;;14.93;85.35
37852;BME280;23691;52.486;4.650;2022-10-13T08:30:42;101690.56;;;14.91;85.01
37852;BME280;23691;52.486;4.650;2022-10-13T08:33:07;101687.03;;;14.91;85.26
37852;BME280;23691;52.486;4.650;2022-10-13T08:35:33;101687.69;;;14.93;85.32
37852;BME280;23691;52.486;4.650;2022-10-13T08:37:58;101683.28;;;15.00;85.21
37852;BME280;23691;52.486;4.650;2022-10-13T08:40:23;101675.19;;;15.08;85.08
37852;BME280;23691;52.486;4.650;2022-10-13T08:42:49;101669.78;;;15.16;85.00
37852;BME280;23691;52.486;4.650;2022-10-13T08:45:22;101680.34;;;15.26;84.97
37852;BME280;23691;52.486;4.650;2022-10-13T08:47:53;101684.34;;;15.30;84.60
37852;BME280;23691;52.486;4.650;2022-10-13T08:50:22;101684.66;;;15.35;84.40
37852;BME280;23691;52.486;4.650;2022-10-13T08:55:32;101681.59;;;15.46;84.44
37852;BME280;23691;52.486;4.650;2022-10-13T08:58:01;101672.47;;;15.48;84.46
37852;BME280;23691;52.486;4.650;2022-10-13T09:00:30;101667.59;;;15.51;84.19
37852;BME280;23691;52.486;4.650;2022-10-13T09:03:24;101679.16;;;15.60;84.12
37852;BME280;23691;52.486;4.650;2022-10-13T09:06:09;101677.97;;;15.62;83.50
37852;BME280;23691;52.486;4.650;2022-10-13T09:09:01;101666.81;;;15.74;83.15
37852;BME280;23691;52.486;4.650;2022-10-13T09:11:30;101669.44;;;15.82;82.94
37852;BME280;23691;52.486;4.650;2022-10-13T09:14:04;101667.03;;;15.87;83.08
37852;BME280;23691;52.486;4.650;2022-10-13T09:16:36;101656.38;;;15.94;82.98
37852;BME280;23691;52.486;4.650;2022-10-13T09:22:58;101665.59;;;15.99;82.43
37852;BME280;23691;52.486;4.650;2022-10-13T09:27:56;101688.09;;;15.92;82.19
37852;BME280;23691;52.486;4.650;2022-10-13T09:30:38;101679.03;;;15.84;82.24
37852;BME280;23691;52.486;4.650;2022-10-13T09:35:31;101680.31;;;15.65;82.03
37852;BME280;23691;52.486;4.650;2022-10-13T09:40:32;101686.56;;;15.58;81.79
37852;BME280;23691;52.486;4.650;2022-10-13T09:42:59;101697.56;;;15.56;81.85
37852;BME280;23691;52.486;4.650;2022-10-13T09:45:25;101694.34;;;15.53;81.19
37852;BME280;23691;52.486;4.650;2022-10-13T09:47:56;101696.06;;;15.45;81.27
37852;BME280;23691;52.486;4.650;2022-10-13T09:50:25;101694.41;;;15.44;80.96
37852;BME280;23691;52.486;4.650;2022-10-13T09:52:52;101690.34;;;15.49;80.64
37852;BME280;23691;52.486;4.650;2022-10-13T09:55:47;101704.31;;;15.52;80.64
37852;BME280;23691;52.486;4.650;2022-10-13T09:58:23;101707.84;;;15.53;80.63
37852;BME280;23691;52.486;4.650;2022-10-13T10:00:50;101702.22;;;15.62;80.36
37852;BME280;23691;52.486;4.650;2022-10-13T10:03:18;101701.16;;;15.80;79.92
37852;BME280;23691;52.486;4.650;2022-10-13T10:06:00;101700.69;;;15.99;79.54
37852;BME280;23691;52.486;4.650;2022-10-13T10:10:52;101695.22;;;16.30;78.84
37852;BME280;23691;52.486;4.650;2022-10-13T10:13:18;101694.16;;;16.40;78.66
37852;BME280;23691;52.486;4.650;2022-10-13T10:21:27;101689.44;;;16.57;77.88
37852;BME280;23691;52.486;4.650;2022-10-13T10:26:57;101694.06;;;16.48;77.66
37852;BME280;23691;52.486;4.650;2022-10-13T10:32:20;101687.72;;;16.41;77.07
37852;BME280;23691;52.486;4.650;2022-10-13T10:46:14;101668.84;;;16.56;75.36
37852;BME280;23691;52.486;4.650;2022-10-13T10:48:43;101665.69;;;16.67;75.22
37852;BME280;23691;52.486;4.650;2022-10-13T10:51:10;101659.69;;;16.80;74.73
37852;BME280;23691;52.486;4.650;2022-10-13T10:53:57;101657.06;;;16.86;74.95
37852;BME280;23691;52.486;4.650;2022-10-13T11:02:09;101654.53;;;17.00;74.34
37852;BME280;23691;52.486;4.650;2022-10-13T11:04:47;101650.34;;;16.97;74.17
37852;BME280;23691;52.486;4.650;2022-10-13T11:07:52;101644.13;;;16.97;73.97
37852;BME280;23691;52.486;4.650;2022-10-13T11:10:20;101644.84;;;16.90;73.96
37852;BME280;23691;52.486;4.650;2022-10-13T11:13:05;101640.59;;;16.81;73.74
37852;BME280;23691;52.486;4.650;2022-10-13T11:15:44;101634.38;;;16.72;73.52
37852;BME280;23691;52.486;4.650;2022-10-13T11:18:54;101643.72;;;16.70;73.78
37852;BME280;23691;52.486;4.650;2022-10-13T11:21:20;101640.34;;;16.68;73.63
37852;BME280;23691;52.486;4.650;2022-10-13T11:23:48;101641.66;;;16.72;73.60
37852;BME280;23691;52.486;4.650;2022-10-13T11:26:29;101635.22;;;16.73;73.69
37852;BME280;23691;52.486;4.650;2022-10-13T11:28:56;101638.97;;;16.72;73.21
37852;BME280;23691;52.486;4.650;2022-10-13T11:33:59;101629.56;;;16.83;73.62
37852;BME280;23691;52.486;4.650;2022-10-13T11:36:36;101624.25;;;16.89;73.14
37852;BME280;23691;52.486;4.650;2022-10-13T11:39:33;101619.13;;;16.94;73.22
37852;BME280;23691;52.486;4.650;2022-10-13T11:44:54;101608.59;;;17.00;73.05
37852;BME280;23691;52.486;4.650;2022-10-13T11:58:34;101601.59;;;17.05;72.67
37852;BME280;23691;52.486;4.650;2022-10-13T12:01:12;101599.75;;;17.06;72.57
37852;BME280;23691;52.486;4.650;2022-10-13T12:03:43;101600.00;;;17.11;72.86
37852;BME280;23691;52.486;4.650;2022-10-13T12:06:32;101601.84;;;17.10;72.86
37852;BME280;23691;52.486;4.650;2022-10-13T12:09:19;101608.56;;;17.14;72.54
37852;BME280;23691;52.486;4.650;2022-10-13T12:11:45;101601.94;;;17.17;72.68
37852;BME280;23691;52.486;4.650;2022-10-13T12:14:20;101602.22;;;17.22;72.63
37852;BME280;23691;52.486;4.650;2022-10-13T12:16:54;101603.44;;;17.20;72.24
37852;BME280;23691;52.486;4.650;2022-10-13T12:19:22;101594.94;;;17.23;72.51
37852;BME280;23691;52.486;4.650;2022-10-13T12:21:54;101590.09;;;17.33;72.29
37852;BME280;23691;52.486;4.650;2022-10-13T12:24:25;101587.44;;;17.39;71.96
37852;BME280;23691;52.486;4.650;2022-10-13T12:26:51;101595.81;;;17.45;72.33
37852;BME280;23691;52.486;4.650;2022-10-13T12:29:18;101593.34;;;17.50;72.51
37852;BME280;23691;52.486;4.650;2022-10-13T12:31:48;101592.53;;;17.49;72.31
37852;BME280;23691;52.486;4.650;2022-10-13T12:36:54;101588.72;;;17.44;72.09
37852;BME280;23691;52.486;4.650;2022-10-13T12:39:20;101586.97;;;17.36;72.51
37852;BME280;23691;52.486;4.650;2022-10-13T12:41:46;101597.53;;;17.31;72.67
37852;BME280;23691;52.486;4.650;2022-10-13T12:44:16;101601.19;;;17.23;73.10
37852;BME280;23691;52.486;4.650;2022-10-13T12:49:21;101601.13;;;17.02;73.50
37852;BME280;23691;52.486;4.650;2022-10-13T12:51:53;101605.34;;;16.89;73.41
37852;BME280;23691;52.486;4.650;2022-10-13T12:54:26;101599.19;;;16.81;73.94
37852;BME280;23691;52.486;4.650;2022-10-13T12:56:58;101604.00;;;16.70;73.88
37852;BME280;23691;52.486;4.650;2022-10-13T12:59:26;101606.81;;;16.62;73.95
37852;BME280;23691;52.486;4.650;2022-10-13T13:01:55;101601.50;;;16.54;74.30
37852;BME280;23691;52.486;4.650;2022-10-13T13:07:00;101610.34;;;16.48;74.83
37852;BME280;23691;52.486;4.650;2022-10-13T13:09:30;101605.03;;;16.40;74.99
37852;BME280;23691;52.486;4.650;2022-10-13T13:17:11;101605.56;;;16.35;75.17
37852;BME280;23691;52.486;4.650;2022-10-13T13:19:38;101607.63;;;16.33;75.22
37852;BME280;23691;52.486;4.650;2022-10-13T13:22:05;101605.28;;;16.30;75.88
37852;BME280;23691;52.486;4.650;2022-10-13T13:24:31;101602.47;;;16.23;75.89
37852;BME280;23691;52.486;4.650;2022-10-13T13:26:57;101600.31;;;16.19;75.72
37852;BME280;23691;52.486;4.650;2022-10-13T13:29:22;101603.22;;;16.17;75.76
37852;BME280;23691;52.486;4.650;2022-10-13T13:31:48;101596.69;;;16.12;75.78
37852;BME280;23691;52.486;4.650;2022-10-13T13:34:13;101600.00;;;15.99;75.59
37852;BME280;23691;52.486;4.650;2022-10-13T13:36:39;101598.88;;;15.93;75.40
37852;BME280;23691;52.486;4.650;2022-10-13T13:39:13;101605.66;;;15.89;75.37
37852;BME280;23691;52.486;4.650;2022-10-13T13:41:39;101607.69;;;15.87;75.19
37852;BME280;23691;52.486;4.650;2022-10-13T13:44:04;101606.19;;;15.84;74.83
37852;BME280;23691;52.486;4.650;2022-10-13T13:46:30;101610.09;;;15.82;74.85
37852;BME280;23691;52.486;4.650;2022-10-13T13:48:57;101609.97;;;15.75;74.59
37852;BME280;23691;52.486;4.650;2022-10-13T13:51:22;101610.31;;;15.72;74.62
37852;BME280;23691;52.486;4.650;2022-10-13T13:53:48;101608.81;;;15.70;74.24
37852;BME280;23691;52.486;4.650;2022-10-13T13:56:15;101605.78;;;15.64;74.10
37852;BME280;23691;52.486;4.650;2022-10-13T13:58:41;101612.59;;;15.60;74.58
37852;BME280;23691;52.486;4.650;2022-10-13T14:01:07;101606.63;;;15.65;74.12
37852;BME280;23691;52.486;4.650;2022-10-13T14:03:33;101603.94;;;15.65;74.48
37852;BME280;23691;52.486;4.650;2022-10-13T14:05:58;101607.00;;;15.62;74.42
37852;BME280;23691;52.486;4.650;2022-10-13T14:08:24;101601.59;;;15.62;74.46
37852;BME280;23691;52.486;4.650;2022-10-13T14:10:49;101602.94;;;15.66;74.60
37852;BME280;23691;52.486;4.650;2022-10-13T14:13:15;101595.84;;;15.65;74.63
37852;BME280;23691;52.486;4.650;2022-10-13T14:15:40;101598.19;;;15.68;74.67
37852;BME280;23691;52.486;4.650;2022-10-13T14:18:06;101595.84;;;15.73;74.62
37852;BME280;23691;52.486;4.650;2022-10-13T14:20:32;101589.03;;;15.77;74.62
37852;BME280;23691;52.486;4.650;2022-10-13T14:22:59;101579.56;;;15.81;74.45
37852;BME280;23691;52.486;4.650;2022-10-13T14:25:24;101580.22;;;15.83;74.83
37852;BME280;23691;52.486;4.650;2022-10-13T14:27:50;101574.84;;;15.83;75.03
37852;BME280;23691;52.486;4.650;2022-10-13T14:30:16;101571.94;;;15.85;75.26
37852;BME280;23691;52.486;4.650;2022-10-13T14:32:43;101570.09;;;15.85;75.50
37852;BME280;23691;52.486;4.650;2022-10-13T14:35:08;101567.03;;;15.88;75.34
37852;BME280;23691;52.486;4.650;2022-10-13T14:37:35;101558.56;;;15.92;75.22
37852;BME280;23691;52.486;4.650;2022-10-13T14:40:00;101563.31;;;15.89;75.37
37852;BME280;23691;52.486;4.650;2022-10-13T14:42:26;101563.59;;;15.95;75.49
37852;BME280;23691;52.486;4.650;2022-10-13T14:44:51;101562.22;;;15.99;75.15
37852;BME280;23691;52.486;4.650;2022-10-13T14:47:19;101563.03;;;15.99;75.09
37852;BME280;23691;52.486;4.650;2022-10-13T14:49:46;101565.41;;;16.02;74.97
37852;BME280;23691;52.486;4.650;2022-10-13T14:52:13;101559.34;;;16.00;74.76
37852;BME280;23691;52.486;4.650;2022-10-13T14:54:42;101557.66;;;15.99;75.02
37852;BME280;23691;52.486;4.650;2022-10-13T14:57:12;101556.34;;;15.95;74.57
37852;BME280;23691;52.486;4.650;2022-10-13T14:59:41;101551.50;;;15.91;74.62
37852;BME280;23691;52.486;4.650;2022-10-13T15:02:11;101553.16;;;15.92;74.64
37852;BME280;23691;52.486;4.650;2022-10-13T15:04:39;101553.66;;;15.95;74.49
37852;BME280;23691;52.486;4.650;2022-10-13T15:07:05;101557.19;;;15.96;74.42
37852;BME280;23691;52.486;4.650;2022-10-13T15:09:31;101550.97;;;15.95;74.16
37852;BME280;23691;52.486;4.650;2022-10-13T15:11:58;101553.13;;;16.00;73.91
37852;BME280;23691;52.486;4.650;2022-10-13T15:14:27;101550.22;;;16.01;73.86
37852;BME280;23691;52.486;4.650;2022-10-13T15:16:52;101544.34;;;15.98;73.89
37852;BME280;23691;52.486;4.650;2022-10-13T15:19:18;101550.09;;;15.95;73.84
37852;BME280;23691;52.486;4.650;2022-10-13T15:21:43;101548.59;;;15.92;74.08
37852;BME280;23691;52.486;4.650;2022-10-13T15:24:10;101553.00;;;15.93;74.20
37852;BME280;23691;52.486;4.650;2022-10-13T15:26:35;101556.34;;;15.95;73.88
37852;BME280;23691;52.486;4.650;2022-10-13T15:29:01;101552.63;;;15.96;74.15
37852;BME280;23691;52.486;4.650;2022-10-13T15:31:26;101551.41;;;15.99;74.20
37852;BME280;23691;52.486;4.650;2022-10-13T15:33:52;101541.66;;;15.98;74.27
37852;BME280;23691;52.486;4.650;2022-10-13T15:36:20;101548.25;;;15.95;74.28
37852;BME280;23691;52.486;4.650;2022-10-13T15:38:45;101544.69;;;15.95;74.53
37852;BME280;23691;52.486;4.650;2022-10-13T15:41:11;101546.78;;;15.93;74.54
37852;BME280;23691;52.486;4.650;2022-10-13T15:46:51;101545.31;;;15.82;75.18
37852;BME280;23691;52.486;4.650;2022-10-13T15:49:30;101547.38;;;15.80;74.79
37852;BME280;23691;52.486;4.650;2022-10-13T15:52:20;101544.91;;;15.70;74.89
37852;BME280;23691;52.486;4.650;2022-10-13T15:54:48;101539.41;;;15.63;75.05
37852;BME280;23691;52.486;4.650;2022-10-13T15:57:16;101546.31;;;15.58;75.13
37852;BME280;23691;52.486;4.650;2022-10-13T15:59:54;101544.38;;;15.52;75.05
37852;BME280;23691;52.486;4.650;2022-10-13T16:02:33;101550.97;;;15.49;75.00
37852;BME280;23691;52.486;4.650;2022-10-13T16:05:28;101540.72;;;15.44;75.16
37852;BME280;23691;52.486;4.650;2022-10-13T16:08:00;101543.09;;;15.39;75.14
37852;BME280;23691;52.486;4.650;2022-10-13T16:10:29;101542.97;;;15.33;75.19
37852;BME280;23691;52.486;4.650;2022-10-13T16:12:54;101542.00;;;15.25;75.21
37852;BME280;23691;52.486;4.650;2022-10-13T16:15:25;101547.94;;;15.21;75.13
37852;BME280;23691;52.486;4.650;2022-10-13T16:17:59;101548.50;;;15.16;75.22
37852;BME280;23691;52.486;4.650;2022-10-13T16:20:41;101547.16;;;15.12;75.16